Data for 04/16/2017

Time Sea-Level Adjusted Pressure Absolute Pressure Temperature Relative Humidity Dew Point   
(mb) (inHg) (mb) (inHg) (C) (F) (%) (C) (F)
00:05 1021 30.15 850 25.1 3.2 37.8 50 -6.4 20.6
00:10 1021 30.15 850 25.1 3 37.5 51 -6.2 20.8
00:15 1021 30.15 850 25.1 3.1 37.5 49 -6.6 20.1
00:20 1021 30.15 850 25.1 3.1 37.6 53 -5.5 22.1
00:25 1021 30.15 850 25.1 2.8 37 54 -5.5 22
00:30 1021 30.15 850 25.1 2.7 36.8 56 -5.1 22.7
00:35 1021 30.15 850 25.1 2.4 36.3 60 -4.5 23.9
00:40 1021 30.15 850 25.1 2.2 36 61 -4.6 23.7
00:45 1021 30.15 850 25.1 2.1 35.8 62 -4.4 24
00:50 1021 30.15 850 25.1 2.1 35.8 61 -4.7 23.6
00:55 1021 30.15 850 25.1 2.2 35.9 61 -4.7 23.6
01:00 1021 30.15 850 25.1 2.3 36.2 60 -4.7 23.5
01:05 1021 30.15 850 25.1 2.3 36.1 59 -4.9 23.2
01:10 1021 30.15 850 25.1 2.3 36.2 60 -4.7 23.5
01:15 1021 30.15 850 25.1 2.2 36 61 -4.5 23.9
01:20 1021 30.15 850 25.1 2.2 35.9 60 -4.9 23.3
01:25 1021 30.15 850 25.1 2.3 36.1 59 -4.9 23.3
01:30 1021 30.15 850 25.1 2.2 36 60 -4.8 23.4
01:35 1021 30.15 850 25.1 2.2 35.9 61 -4.6 23.7
01:40 1021 30.15 850 25.1 2.1 35.8 61 -4.6 23.7
01:45 1021 30.15 850 25.1 2.1 35.8 61 -4.6 23.8
01:50 1021 30.15 850 25.1 2 35.6 62 -4.6 23.8
01:55 1021 30.15 850 25.1 2 35.5 62 -4.6 23.8
02:00 1021 30.15 850 25.1 1.8 35.3 62 -4.7 23.6
02:05 1021 30.15 850 25.1 1.7 35.1 62 -4.7 23.5
02:10 1021 30.15 850 25.1 1.7 35.1 63 -4.7 23.6
02:15 1021 30.15 850 25.1 1.6 34.9 64 -4.5 23.8
02:20 1021 30.15 850 25.1 1.5 34.7 63 -4.8 23.3
02:25 1021 30.15 850 25.1 1.4 34.5 64 -4.8 23.4
02:30 1021 30.15 850 25.1 1.2 34.2 64 -4.8 23.3
02:35 1021 30.15 850 25.1 1.1 34 64 -4.9 23.1
02:40 1021 30.15 850 25.1 1 33.8 64 -5 23
02:45 1021 30.15 850 25.1 1 33.7 64 -5.1 22.9
02:50 1021 30.15 850 25.1 0.8 33.5 65 -5 23
02:55 1021 30.15 850 25.1 0.7 33.2 66 -4.9 23.2
03:00 1021 30.15 850 25.1 0.7 33.2 67 -4.9 23.3
03:05 1021 30.15 850 25.1 0.6 33.1 67 -4.8 23.3
03:10 1021 30.15 850 25.1 0.5 32.9 67 -4.9 23.2
03:15 1021 30.15 850 25.1 0.5 32.9 67 -4.9 23.1
03:20 1021 30.15 851 25.13 0.4 32.7 68 -4.9 23.2
03:25 1021 30.15 851 25.13 0.3 32.6 68 -5 23.1
03:30 1021 30.15 851 25.13 0.4 32.7 67 -5 23.1
03:35 1021 30.15 851 25.13 0.2 32.4 67 -5.2 22.7
03:40 1021 30.15 851 25.13 0.2 32.3 67 -5.3 22.4
03:45 1021 30.15 851 25.13 0.1 32.2 67 -5.3 22.4
03:50 1021 30.15 851 25.13 -0.1 31.9 68 -5.3 22.4
03:55 1021 30.15 851 25.13 -0.2 31.7 68 -5.4 22.3
04:00 1021 30.15 851 25.13 -0.2 31.6 69 -5.2 22.7
04:05 1021 30.15 851 25.13 -0.4 31.3 69 -5.3 22.5
04:10 1021 30.15 851 25.13 -0.5 31.1 67 -5.8 21.6
04:15 1021 30.15 851 25.13 -0.4 31.3 66 -6 21.2
04:20 1021 30.15 851 25.13 -0.4 31.4 67 -5.8 21.5
04:25 1021 30.15 851 25.13 -0.5 31.2 67 -5.8 21.5
04:30 1021 30.15 851 25.13 -0.6 30.9 68 -5.8 21.5
04:35 1021 30.15 851 25.13 -0.8 30.6 69 -5.8 21.5
04:40 1021 30.15 851 25.13 -0.9 30.3 69 -5.9 21.3
04:45 1021 30.15 851 25.13 -1.1 30.1 69 -6 21.2
04:50 1021 30.15 851 25.13 -1.1 30 69 -6 21.1
04:55 1021 30.15 851 25.13 -1.1 29.9 70 -6 21.2
05:00 1021 30.15 851 25.13 -1.3 29.7 70 -6 21.1
05:05 1021 30.15 851 25.13 -1.4 29.5 70 -6.1 21.1
05:10 1022 30.18 851 25.13 -1.4 29.5 70 -6.2 20.9
05:15 1022 30.18 851 25.13 -1.5 29.4 70 -6.2 20.9
05:20 1022 30.18 851 25.13 -1.5 29.2 71 -6.2 20.8
05:25 1022 30.18 851 25.13 -1.6 29.2 70 -6.3 20.7
05:30 1022 30.18 851 25.13 -1.6 29.1 71 -6.3 20.7
05:35 1022 30.18 851 25.13 -1.7 29 70 -6.3 20.6
05:40 1022 30.18 851 25.13 -1.7 28.9 71 -6.3 20.6
05:45 1022 30.18 851 25.13 -1.8 28.8 71 -6.5 20.4
05:50 1022 30.18 851 25.13 -1.9 28.7 71 -6.4 20.5
05:55 1022 30.18 851 25.13 -1.9 28.6 71 -6.5 20.2
06:00 1022 30.18 851 25.13 -1.7 28.9 70 -6.5 20.2
06:05 1022 30.18 851 25.13 -1.6 29.1 69 -6.6 20.2
06:10 1022 30.18 851 25.13 -1.4 29.5 68 -6.5 20.3
06:15 1022 30.18 851 25.13 -1.2 29.8 67 -6.6 20.1
06:20 1021 30.15 851 25.13 -1.1 30 66 -6.6 20.1
06:25 1022 30.18 851 25.13 -0.9 30.4 65 -6.7 20
06:30 1022 30.18 851 25.13 -0.5 31.1 64 -6.6 20.2
06:35 1022 30.18 851 25.13 -0.2 31.6 63 -6.5 20.4
06:40 1022 30.18 851 25.13 -0 31.9 62 -6.4 20.4
06:45 1022 30.18 851 25.13 0.1 32.2 61 -6.6 20.1
06:50 1022 30.18 851 25.13 0.5 32.9 60 -6.4 20.5
06:55 1022 30.18 851 25.13 0.5 32.9 60 -6.3 20.7
07:00 1022 30.18 851 25.13 0.9 33.6 60 -6.1 21.1
07:05 1022 30.18 851 25.13 1 33.9 59 -6.2 20.9
07:10 1022 30.18 851 25.13 1.2 34.1 58 -6.3 20.7
07:15 1022 30.18 851 25.13 1.3 34.4 57 -6.3 20.6
07:20 1022 30.18 851 25.13 1.6 34.9 55 -6.5 20.4
07:25 1022 30.18 851 25.13 2.1 35.8 55 -6.1 21
07:30 1022 30.18 851 25.13 2.5 36.6 52 -6.3 20.7
07:35 1022 30.18 851 25.13 2.9 37.3 51 -6.3 20.7
07:40 1021 30.15 851 25.13 3.8 38.8 46 -6.7 20
07:45 1022 30.18 851 25.13 4.3 39.8 46 -6.2 20.9
07:50 1022 30.18 851 25.13 4.3 39.8 45 -6.5 20.3
07:55 1022 30.18 851 25.13 4.6 40.3 43 -7 19.4
08:00 1021 30.15 851 25.13 4.8 40.6 40 -7.6 18.3
08:05 1022 30.18 851 25.13 5.1 41.3 39 -7.6 18.2
08:10 1022 30.18 851 25.13 5.8 42.4 38 -7.6 18.3
08:15 1022 30.18 851 25.13 5.9 42.6 38 -7.5 18.4
08:20 1022 30.18 851 25.13 5.9 42.6 38 -7.2 19
08:25 1022 30.18 851 25.13 6 42.9 37 -7.8 18
08:30 1022 30.18 851 25.13 5.8 42.4 38 -7.3 18.8
08:35 1022 30.18 851 25.13 5.7 42.3 38 -7.4 18.6
08:40 1022 30.18 851 25.13 4.9 40.8 41 -7.3 18.8
08:45 1022 30.18 851 25.13 5.6 42.1 38 -7.5 18.5
08:50 1022 30.18 851 25.13 6.2 43.2 39 -6.7 19.9
08:55 1022 30.18 851 25.13 5.2 41.3 40 -7.3 18.9
09:00 1022 30.18 851 25.13 5 41.1 42 -6.8 19.8
09:05 1022 30.18 851 25.13 5.4 41.8 39 -7.4 18.6
09:10 1022 30.18 851 25.13 5.8 42.4 41 -6.6 20.1
09:15 1022 30.18 851 25.13 5.4 41.7 39 -7.5 18.5
09:20 1022 30.18 851 25.13 5.7 42.2 42 -6.2 20.9
09:25 1022 30.18 851 25.13 5.4 41.8 40 -7.1 19.3
09:30 1022 30.18 851 25.13 5.9 42.7 41 -6.4 20.5
09:35 1022 30.18 851 25.13 6.6 43.9 36 -7.4 18.6
09:40 1022 30.18 851 25.13 6.4 43.4 39 -6.7 19.9
09:45 1022 30.18 851 25.13 6.8 44.3 35 -7.4 18.6
09:50 1022 30.18 851 25.13 7.6 45.6 34 -7.2 19
09:55 1022 30.18 851 25.13 7.6 45.6 36 -6.5 20.3
10:00 1022 30.18 851 25.13 6.7 44.1 38 -6.7 19.9
10:05 1022 30.18 851 25.13 7.4 45.3 36 -6.6 20.1
10:10 1022 30.18 851 25.13 7.6 45.8 38 -5.7 21.8
10:15 1022 30.18 851 25.13 7.5 45.4 36 -6.7 20
10:20 1022 30.18 851 25.13 7.7 45.8 38 -5.8 21.5
10:25 1022 30.18 851 25.13 7.3 45.1 37 -6.5 20.3
10:30 1022 30.18 851 25.13 7.6 45.7 37 -6.3 20.7
10:35 1022 30.18 851 25.13 6.8 44.2 37 -6.9 19.7
10:40 1022 30.18 851 25.13 6.6 44 39 -6.4 20.4
10:45 1022 30.18 851 25.13 7.2 44.9 39 -5.8 21.6
10:50 1022 30.18 851 25.13 7.6 45.7 36 -6.5 20.2
10:55 1022 30.18 851 25.13 8.1 46.5 34 -6.7 19.9
11:00 1022 30.18 851 25.13 8.1 46.6 35 -6.5 20.2
11:05 1022 30.18 851 25.13 8.6 47.4 32 -7.4 18.7
11:10 1022 30.18 851 25.13 8.9 48 32 -7 19.4
11:15 1022 30.18 851 25.13 9.4 48.8 31 -6.8 19.7
11:20 1022 30.18 851 25.13 9.9 49.7 31 -6.3 20.6
11:25 1022 30.18 851 25.13 9.6 49.3 31 -6.8 19.8
11:30 1022 30.18 851 25.13 8.6 47.5 32 -7.1 19.3
11:35 1022 30.18 851 25.13 9.2 48.6 31 -6.9 19.6
11:40 1022 30.18 851 25.13 8.9 48 32 -6.9 19.7
11:45 1022 30.18 851 25.13 9 48.2 31 -7.1 19.3
11:50 1022 30.18 851 25.13 9.3 48.7 33 -6.3 20.7
11:55 1022 30.18 851 25.13 9.6 49.3 31 -6.5 20.2
12:00 1022 30.18 851 25.13 9.9 49.8 29 -7.1 19.1
12:05 1022 30.18 851 25.13 10 50.1 31 -6.4 20.4
12:10 1022 30.18 851 25.13 9.7 49.5 30 -7.2 19.1
12:15 1022 30.18 851 25.13 10 50 31 -6.5 20.3
12:20 1021 30.15 851 25.13 10.1 50.1 30 -6.7 19.9
12:25 1021 30.15 851 25.13 9.9 49.8 31 -6.4 20.5
12:30 1021 30.15 851 25.13 10.4 50.7 31 -6.2 20.9
12:35 1021 30.15 850 25.1 9.7 49.5 31 -6.6 20.1
12:40 1021 30.15 850 25.1 9.2 48.5 31 -7.1 19.2
12:45 1021 30.15 850 25.1 10.6 51 29 -6.8 19.8
12:50 1021 30.15 850 25.1 10.7 51.3 29 -6.7 19.9
12:55 1021 30.15 850 25.1 10.5 50.9 30 -6.1 21
13:00 1021 30.15 850 25.1 9.5 49.1 31 -6.6 20
13:05 1021 30.15 850 25.1 10.7 51.3 28 -7 19.4
13:10 1021 30.15 850 25.1 11.3 52.4 28 -6.7 19.9
13:15 1021 30.15 850 25.1 11.2 52.1 29 -6.3 20.7
13:20 1021 30.15 850 25.1 11.1 52 28 -6.8 19.7
13:25 1021 30.15 850 25.1 10.8 51.5 27 -7.3 18.9
13:30 1021 30.15 850 25.1 10.8 51.5 29 -6.5 20.2
13:35 1021 30.15 850 25.1 10.9 51.7 29 -6.5 20.3
13:40 1021 30.15 850 25.1 10.9 51.7 28 -7 19.4
13:45 1021 30.15 850 25.1 11.1 52.1 27 -7.2 19.1
13:50 1021 30.15 850 25.1 11.4 52.4 28 -6.4 20.4
13:55 1021 30.15 850 25.1 11.8 53.2 26 -6.9 19.5
14:00 1020 30.12 850 25.1 11.5 52.7 27 -6.7 19.9
14:05 1020 30.12 850 25.1 11.5 52.6 28 -6.6 20.1
14:10 1020 30.12 850 25.1 11.3 52.3 28 -6.7 20
14:15 1020 30.12 850 25.1 10.8 51.5 28 -6.9 19.5
14:20 1020 30.12 850 25.1 11.3 52.3 27 -7 19.5
14:25 1020 30.12 849 25.07 11.8 53.2 27 -6.4 20.4
14:30 1020 30.12 849 25.07 12.1 53.8 26 -6.9 19.7
14:35 1020 30.12 849 25.07 12.1 53.7 26 -6.7 20
14:40 1020 30.12 849 25.07 10.7 51.2 29 -6.6 20.2
14:45 1020 30.12 849 25.07 10.4 50.6 29 -6.9 19.6
14:50 1020 30.12 849 25.07 10.5 50.8 28 -7.5 18.6
14:55 1020 30.12 849 25.07 11.3 52.4 28 -6.7 19.9
15:00 1020 30.12 849 25.07 11.9 53.4 26 -6.8 19.7
15:05 1020 30.12 849 25.07 12.3 54.1 26 -6.9 19.6
15:10 1020 30.12 849 25.07 12.1 53.8 27 -6.2 20.8
15:15 1020 30.12 849 25.07 11.8 53.2 27 -6.4 20.5
15:20 1020 30.12 849 25.07 11.3 52.4 27 -7 19.4
15:25 1020 30.12 849 25.07 11.5 52.7 28 -6.3 20.6
15:30 1020 30.12 849 25.07 12 53.5 25 -7.2 19
15:35 1020 30.12 849 25.07 12.7 54.8 27 -6 21.1
15:40 1020 30.12 849 25.07 12.9 55.3 25 -6.8 19.8
15:45 1019 30.09 849 25.07 12.4 54.4 26 -6.6 20.1
15:50 1019 30.09 849 25.07 11.7 53 28 -6.4 20.5
15:55 1019 30.09 849 25.07 12 53.6 26 -6.7 20
16:00 1019 30.09 849 25.07 12.2 54 26 -6.6 20.1
16:05 1019 30.09 849 25.07 12.3 54.1 26 -6.8 19.8
16:10 1019 30.09 849 25.07 11.7 53 28 -6.3 20.7
16:15 1019 30.09 848 25.04 10.8 51.4 29 -6.6 20.2
16:20 1019 30.09 848 25.04 10.6 51.2 28 -7 19.4
16:25 1019 30.09 848 25.04 10.5 51 29 -6.7 19.9
16:30 1019 30.09 848 25.04 10.7 51.3 28 -6.8 19.7
16:35 1019 30.09 848 25.04 10.5 51 29 -6.6 20
16:40 1019 30.09 848 25.04 10.9 51.5 28 -7.1 19.3
16:45 1019 30.09 848 25.04 11.4 52.5 27 -7 19.4
16:50 1019 30.09 848 25.04 11.2 52.1 28 -6.6 20.1
16:55 1019 30.09 848 25.04 10.9 51.6 28 -6.8 19.8
17:00 1019 30.09 848 25.04 10.9 51.6 28 -7 19.3
17:05 1019 30.09 848 25.04 10.7 51.3 28 -6.8 19.7
17:10 1019 30.09 848 25.04 10.8 51.4 29 -6.5 20.3
17:15 1019 30.09 848 25.04 11.3 52.3 28 -6.4 20.6
17:20 1019 30.09 848 25.04 11.2 52.1 28 -6.5 20.2
17:25 1019 30.09 848 25.04 11.3 52.4 28 -6.7 20
17:30 1019 30.09 848 25.04 11.4 52.5 28 -6.6 20.1
17:35 1019 30.09 848 25.04 11.2 52.2 27 -6.9 19.6
17:40 1019 30.09 848 25.04 10.7 51.3 28 -6.9 19.6
17:45 1019 30.09 848 25.04 10.6 51.2 28 -6.9 19.6
17:50 1019 30.09 848 25.04 10.8 51.4 29 -6.7 19.9
17:55 1019 30.09 848 25.04 10.7 51.3 29 -6.6 20.1
18:00 1019 30.09 848 25.04 10.7 51.2 29 -6.4 20.4
18:05 1019 30.09 848 25.04 10.5 50.9 30 -6.2 20.8
18:10 1019 30.09 848 25.04 10.5 50.9 30 -6.2 20.8
18:15 1019 30.09 848 25.04 10.5 50.8 31 -6 21.2
18:20 1019 30.09 848 25.04 10.4 50.7 31 -6.1 21
18:25 1019 30.09 848 25.04 10.3 50.5 32 -5.8 21.6
18:30 1019 30.09 848 25.04 10.1 50.2 33 -5.5 22.1
18:35 1019 30.09 848 25.04 10 50 34 -5.2 22.6
18:40 1018 30.06 848 25.04 10 49.9 34 -5.2 22.7
18:45 1018 30.06 847 25.01 9.8 49.6 35 -5.1 22.8
18:50 1018 30.06 847 25.01 9.6 49.3 37 -4.4 24.1
18:55 1018 30.06 847 25.01 9.5 49 35 -5.1 22.8
19:00 1018 30.06 847 25.01 9.3 48.7 34 -5.8 21.6
19:05 1018 30.06 847 25.01 9.2 48.5 34 -6 21.2
19:10 1018 30.06 847 25.01 9 48.3 33 -6.2 20.8
19:15 1018 30.06 847 25.01 8.9 48 33 -6.5 20.4
19:20 1018 30.06 847 25.01 8.8 47.8 34 -6.3 20.7
19:25 1018 30.06 847 25.01 8.6 47.5 33 -6.6 20
19:30 1018 30.06 847 25.01 8.6 47.4 34 -6.6 20.2
19:35 1018 30.06 847 25.01 8.5 47.3 33 -6.7 19.9
19:40 1018 30.06 847 25.01 8.5 47.2 33 -6.7 19.9
19:45 1018 30.06 847 25.01 8.5 47.3 33 -7 19.4
19:50 1018 30.06 847 25.01 8.6 47.4 33 -6.9 19.5
19:55 1018 30.06 847 25.01 8.6 47.4 32 -7.2 19.1
20:00 1018 30.06 847 25.01 8.6 47.5 32 -7 19.4
20:05 1018 30.06 847 25.01 8.5 47.3 33 -6.8 19.7
20:10 1018 30.06 847 25.01 8.5 47.2 33 -6.9 19.5
20:15 1018 30.06 847 25.01 8.5 47.3 32 -7.1 19.2
20:20 1018 30.06 847 25.01 8.4 47.1 33 -6.9 19.6
20:25 1018 30.06 847 25.01 8.2 46.8 33 -7.2 19.1
20:30 1018 30.06 847 25.01 8.1 46.5 34 -6.9 19.5
20:35 1018 30.06 847 25.01 7.9 46.3 33 -7.5 18.5
20:40 1018 30.06 847 25.01 7.9 46.2 32 -7.6 18.3
20:45 1018 30.06 847 25.01 7.7 45.9 32 -7.8 18
20:50 1018 30.06 847 25.01 7.6 45.6 32 -8.1 17.4
20:55 1018 30.06 847 25.01 7.5 45.5 32 -8.2 17.2
21:00 1018 30.06 847 25.01 7.5 45.4 33 -7.9 17.7
21:05 1018 30.06 847 25.01 7.4 45.3 33 -7.9 17.7
21:10 1018 30.06 847 25.01 7.3 45.2 34 -7.6 18.3
21:15 1018 30.06 847 25.01 7.3 45.1 35 -7.3 18.8
21:20 1018 30.06 847 25.01 7.1 44.9 36 -7 19.5
21:25 1018 30.06 847 25.01 7 44.6 37 -6.7 19.9
21:30 1018 30.06 847 25.01 7 44.5 37 -6.9 19.6
21:35 1018 30.06 847 25.01 7 44.6 37 -6.7 20
21:40 1017 30.03 847 25.01 6.9 44.5 38 -6.6 20.2
21:45 1018 30.06 847 25.01 6.9 44.5 38 -6.5 20.2
21:50 1018 30.06 847 25.01 6.9 44.4 38 -6.6 20.1
21:55 1017 30.03 847 25.01 6.9 44.4 39 -6.2 20.8
22:00 1017 30.03 847 25.01 6.8 44.2 39 -6.1 21.1
22:05 1017 30.03 847 25.01 6.8 44.2 39 -6.2 20.8
22:10 1017 30.03 846 24.98 6.7 44 40 -6.1 21
22:15 1017 30.03 846 24.98 6.6 43.8 41 -5.9 21.4
22:20 1017 30.03 846 24.98 6.5 43.7 41 -5.9 21.3
22:25 1017 30.03 846 24.98 6.5 43.6 41 -5.9 21.3
22:30 1017 30.03 846 24.98 6.4 43.6 41 -5.9 21.4
22:35 1017 30.03 846 24.98 6.4 43.4 41 -6 21.2
22:40 1017 30.03 846 24.98 6.3 43.4 41 -5.9 21.3
22:45 1017 30.03 846 24.98 6.2 43.2 42 -5.9 21.5
22:50 1017 30.03 846 24.98 6.1 43 42 -6 21.2
22:55 1017 30.03 846 24.98 6.2 43.1 41 -6 21.2
23:00 1017 30.03 846 24.98 6.1 43 42 -6 21.3
23:05 1017 30.03 846 24.98 5.9 42.7 42 -6.2 20.9
23:10 1017 30.03 846 24.98 6 42.8 41 -6.3 20.7
23:15 1017 30.03 846 24.98 6 42.8 41 -6.2 20.9
23:20 1016 30 846 24.98 5.9 42.6 42 -6.2 20.9
23:25 1017 30.03 846 24.98 5.7 42.3 42 -6.1 21.1
23:30 1016 30 846 24.98 5.6 42 42 -6.3 20.7
23:35 1017 30.03 846 24.98 5.4 41.7 43 -6.2 20.9
23:40 1016 30 846 24.98 5.3 41.5 43 -6.2 20.9
23:45 1016 30 846 24.98 5.1 41.2 43 -6.5 20.4
23:50 1016 30 845 24.95 4.9 40.9 44 -6.4 20.5
23:55 1016 30 845 24.95 4.7 40.4 44 -6.4 20.5
24:00 1016 30 845 24.95 4.6 40.2 45 -6.5 20.4